Time;durP1;ratioP1;P1;durP2;ratioP2;P2;SDS_P1;SDS_P2;PMS_P1;PMS_P2;Temp;Humidity;BMP_temperature;BMP_pressure;BME280_temperature;BME280_humidity;BME280_pressure;Samples;Min_cycle;Max_cycle;Signal;HPM_P1;HPM_P2
2023/03/30 00:01:34;;;;;;;;;;;;;;;7.56;100.00;97820.06;5084798;28;19925;-65
2023/03/30 00:04:01;;;;;;;;;;;;;;;7.55;100.00;97818.44;5081871;28;19962;-65
2023/03/30 00:06:28;;;;;;;;;;;;;;;7.58;100.00;97823.28;5081829;28;20419;-65
2023/03/30 00:08:55;;;;;;;;;;;;;;;7.56;100.00;97830.69;5084988;28;19924;-65
2023/03/30 00:11:23;;;;;;;;;;;;;;;7.56;100.00;97836.00;5084107;28;20564;-65
2023/03/30 00:13:50;;;;;;;;;;;;;;;7.65;100.00;97838.25;5082597;28;19979;-65
2023/03/30 00:16:18;;;;;;;;;;;;;;;7.65;100.00;97835.59;5081508;28;19931;-65
2023/03/30 00:18:44;;;;;;;;;;;;;;;7.72;100.00;97830.91;5083603;28;19993;-65
2023/03/30 00:21:11;;;;;;;;;;;;;;;7.76;100.00;97840.00;5085121;28;20452;-65
2023/03/30 00:23:38;;;;;;;;;;;;;;;7.69;100.00;97823.41;5082893;28;19924;-65
2023/03/30 00:26:06;;;;;;;;;;;;;;;7.68;100.00;97817.28;5081428;28;19924;-66
2023/03/30 00:28:33;;;;;;;;;;;;;;;7.69;100.00;97812.78;5081534;28;20011;-65
2023/03/30 00:30:59;;;;;;;;;;;;;;;7.69;100.00;97810.94;5084864;28;19960;-66
2023/03/30 00:33:27;;;;;;;;;;;;;;;7.69;100.00;97802.97;5084920;28;19931;-66
2023/03/30 00:35:55;;;;;;;;;;;;;;;7.68;100.00;97803.19;5081665;28;19984;-66
2023/03/30 00:38:22;;;;;;;;;;;;;;;7.66;100.00;97797.34;5081284;28;19925;-65
2023/03/30 00:40:51;;;;;;;;;;;;;;;7.66;100.00;97794.69;5083529;28;19964;-66
2023/03/30 00:43:17;;;;;;;;;;;;;;;7.59;100.00;97789.53;5083548;28;19988;-66
2023/03/30 00:45:43;;;;;;;;;;;;;;;7.56;100.00;97793.50;5082440;28;19924;-65
2023/03/30 00:48:14;;;;;;;;;;;;;;;7.59;100.00;97784.22;5080970;28;19984;-66
2023/03/30 00:50:43;;;;;;;;;;;;;;;7.50;100.00;97778.53;5082223;28;19929;-66
2023/03/30 00:53:11;;;;;;;;;;;;;;;7.91;100.00;97793.13;5084478;28;19976;-64
2023/03/30 00:55:39;;;;;;;;;;;;;;;7.75;100.00;97782.56;5083308;28;19920;-65
2023/03/30 00:58:06;;;;;;;;;;;;;;;7.68;100.00;97784.59;5080825;28;19924;-65
2023/03/30 01:00:33;;;;;;;;;;;;;;;7.84;100.00;97783.72;5081045;28;19925;-65
2023/03/30 01:03:02;;;;;;;;;;;;;;;7.68;100.00;97779.28;5084200;28;19958;-65
2023/03/30 01:05:29;;;;;;;;;;;;;;;7.90;100.00;97786.19;5083032;28;19931;-66
2023/03/30 01:07:59;;;;;;;;;;;;;;;7.85;100.00;97780.03;5080850;28;19960;-65
2023/03/30 01:10:26;;;;;;;;;;;;;;;7.61;100.00;97758.22;5080708;28;19960;-65
2023/03/30 01:12:52;;;;;;;;;;;;;;;7.88;100.00;97779.53;5083479;28;19925;-66
2023/03/30 01:15:19;;;;;;;;;;;;;;;7.73;100.00;97774.03;5083807;28;19981;-66
2023/03/30 01:18:03;;;;;;;;;;;;;;;7.59;100.00;97761.13;5081903;28;19936;-66
2023/03/30 01:20:44;;;;;;;;;;;;;;;7.85;100.00;97753.44;5080496;28;19964;-66
2023/03/30 01:23:38;;;;;;;;;;;;;;;7.81;100.00;97770.94;5074587;28;19992;-66
2023/03/30 01:26:19;;;;;;;;;;;;;;;7.83;100.00;97756.34;5033371;28;19985;-65
2023/03/30 01:28:48;;;;;;;;;;;;;;;7.66;100.00;97739.66;5069451;28;19924;-66
2023/03/30 01:31:26;;;;;;;;;;;;;;;7.80;100.00;97743.53;5083748;28;19976;-66
2023/03/30 01:34:10;;;;;;;;;;;;;;;7.80;100.00;97754.16;5080761;28;19925;-66
2023/03/30 01:36:47;;;;;;;;;;;;;;;7.63;100.00;97750.81;5096740;28;19980;-66
2023/03/30 01:39:24;;;;;;;;;;;;;;;7.70;100.00;97735.47;5083699;28;19920;-66
2023/03/30 01:41:55;;;;;;;;;;;;;;;8.03;100.00;97747.78;5080741;28;19928;-66
2023/03/30 01:44:26;;;;;;;;;;;;;;;7.93;100.00;97750.34;5080014;28;19928;-66
2023/03/30 01:46:57;;;;;;;;;;;;;;;7.73;100.00;97734.16;5082844;28;19983;-66
2023/03/30 01:49:27;;;;;;;;;;;;;;;7.95;100.00;97735.72;5083444;28;19980;-66
2023/03/30 01:51:57;;;;;;;;;;;;;;;7.92;100.00;97728.25;5080267;28;19929;-66
2023/03/30 01:54:29;;;;;;;;;;;;;;;7.96;100.00;97736.53;5079848;28;20004;-66
2023/03/30 01:56:58;;;;;;;;;;;;;;;8.08;100.00;97739.84;5083310;28;19924;-66
2023/03/30 01:59:26;;;;;;;;;;;;;;;7.79;100.00;97726.00;5083598;28;19924;-66
2023/03/30 02:01:59;;;;;;;;;;;;;;;8.01;100.00;97747.25;5080369;28;19925;-66
2023/03/30 02:04:26;;;;;;;;;;;;;;;7.79;100.00;97727.84;5079153;28;19928;-65
2023/03/30 02:06:55;;;;;;;;;;;;;;;7.77;100.00;97737.94;5081997;28;19924;-65
2023/03/30 02:09:22;;;;;;;;;;;;;;;7.90;100.00;97756.16;5083414;28;19980;-66
2023/03/30 02:11:52;;;;;;;;;;;;;;;7.77;100.00;97720.13;5081043;28;19920;-66
2023/03/30 02:14:20;;;;;;;;;;;;;;;7.93;100.00;97739.69;5079442;28;19920;-65
2023/03/30 02:16:47;;;;;;;;;;;;;;;8.08;100.00;97730.00;5081497;28;19925;-66
2023/03/30 02:19:15;;;;;;;;;;;;;;;8.04;100.00;97725.47;5082707;28;19967;-66
2023/03/30 02:21:42;;;;;;;;;;;;;;;7.80;100.00;97718.84;5081168;28;19924;-66
2023/03/30 02:24:16;;;;;;;;;;;;;;;7.94;100.00;97741.31;5079167;28;19936;-66
2023/03/30 02:26:42;;;;;;;;;;;;;;;7.80;100.00;97711.63;5080505;28;19937;-66
2023/03/30 02:29:10;;;;;;;;;;;;;;;7.85;100.00;97726.84;5082520;28;19921;-65
2023/03/30 02:31:37;;;;;;;;;;;;;;;8.00;100.00;97740.31;5081492;28;19967;-65
2023/03/30 02:34:09;;;;;;;;;;;;;;;7.79;100.00;97691.44;5078948;28;19957;-65
2023/03/30 02:36:41;;;;;;;;;;;;;;;8.04;100.00;97722.81;5079493;28;19996;-65
2023/03/30 02:39:12;;;;;;;;;;;;;;;7.90;100.00;97716.25;5082415;28;19931;-65
2023/03/30 02:41:54;;;;;;;;;;;;;;;7.94;100.00;97712.06;5081344;28;19967;-65
2023/03/30 02:44:32;;;;;;;;;;;;;;;8.03;100.00;97702.56;5078772;28;19960;-66
2023/03/30 02:47:05;;;;;;;;;;;;;;;7.76;100.00;97693.78;5070725;28;20380;-66
2023/03/30 02:49:53;;;;;;;;;;;;;;;7.91;100.00;97700.06;5078745;28;19925;-66
2023/03/30 02:52:25;;;;;;;;;;;;;;;7.95;100.00;97692.41;5082187;28;19956;-66
2023/03/30 02:54:56;;;;;;;;;;;;;;;7.93;100.00;97694.50;5079473;28;20020;-66
2023/03/30 02:57:27;;;;;;;;;;;;;;;8.12;100.00;97674.47;5078634;28;19980;-66
2023/03/30 02:59:58;;;;;;;;;;;;;;;7.91;100.00;97657.53;5079380;28;19925;-65
2023/03/30 03:02:28;;;;;;;;;;;;;;;7.94;100.00;97666.88;5078613;28;19920;-66
2023/03/30 03:04:54;;;;;;;;;;;;;;;8.11;100.00;97646.25;5081775;28;19925;-66
2023/03/30 03:07:21;;;;;;;;;;;;;;;7.84;100.00;97609.06;5081962;28;19924;-66
2023/03/30 03:09:48;;;;;;;;;;;;;;;7.74;100.00;97592.22;5079896;28;19920;-66
2023/03/30 03:12:14;;;;;;;;;;;;;;;7.79;100.00;97632.16;5078782;28;19956;-66
2023/03/30 03:14:42;;;;;;;;;;;;;;;7.81;100.00;97649.44;5078624;28;19947;-66
2023/03/30 03:17:09;;;;;;;;;;;;;;;7.70;100.00;97637.13;5082243;28;19947;-66
2023/03/30 03:19:36;;;;;;;;;;;;;;;7.91;100.00;97651.41;5081841;28;19933;-66
2023/03/30 03:22:02;;;;;;;;;;;;;;;7.97;100.00;97666.34;5078822;28;19952;-66
2023/03/30 03:24:28;;;;;;;;;;;;;;;7.79;100.00;97670.19;5077592;28;20020;-66
2023/03/30 03:26:55;;;;;;;;;;;;;;;7.78;100.00;97671.22;5081835;28;19983;-66
2023/03/30 03:29:22;;;;;;;;;;;;;;;7.92;100.00;97684.94;5082353;28;19928;-65
2023/03/30 03:31:49;;;;;;;;;;;;;;;8.00;100.00;97676.50;5079492;28;19925;-65
2023/03/30 03:34:17;;;;;;;;;;;;;;;7.93;100.00;97675.88;5078261;28;19932;-65
2023/03/30 03:36:43;;;;;;;;;;;;;;;7.78;100.00;97657.13;5079752;28;19935;-65
2023/03/30 03:39:09;;;;;;;;;;;;;;;7.80;100.00;97655.03;5081685;28;20447;-65
2023/03/30 03:41:36;;;;;;;;;;;;;;;7.84;100.00;97640.16;5080893;28;19924;-65
2023/03/30 03:44:02;;;;;;;;;;;;;;;7.86;100.00;97643.41;5078141;28;19948;-65
2023/03/30 03:46:28;;;;;;;;;;;;;;;8.03;100.00;97646.72;5076934;28;19925;-65
2023/03/30 03:48:55;;;;;;;;;;;;;;;8.02;100.00;97653.09;5081227;28;19931;-65
2023/03/30 03:51:22;;;;;;;;;;;;;;;7.85;100.00;97649.75;5081367;28;19928;-65
2023/03/30 03:53:49;;;;;;;;;;;;;;;7.73;100.00;97633.16;5078954;28;19970;-65
2023/03/30 03:56:15;;;;;;;;;;;;;;;7.72;100.00;97636.88;5077698;28;19925;-66
2023/03/30 03:58:42;;;;;;;;;;;;;;;7.71;100.00;97633.41;5079041;28;19925;-66
2023/03/30 04:01:08;;;;;;;;;;;;;;;7.69;100.00;97658.63;5081187;28;19994;-65
2023/03/30 04:03:34;;;;;;;;;;;;;;;7.69;100.00;97667.41;5080841;28;19924;-66
2023/03/30 04:06:01;;;;;;;;;;;;;;;7.71;100.00;97661.84;5077660;28;19980;-66
2023/03/30 04:08:29;;;;;;;;;;;;;;;7.65;100.00;97673.47;5077588;28;19924;-66
2023/03/30 04:10:55;;;;;;;;;;;;;;;7.65;100.00;97670.81;5080873;28;20556;-64
2023/03/30 04:13:22;;;;;;;;;;;;;;;7.66;100.00;97683.06;5081094;28;19928;-65
2023/03/30 04:15:48;;;;;;;;;;;;;;;7.79;100.00;97709.25;5077248;28;19925;-65
2023/03/30 04:18:15;;;;;;;;;;;;;;;7.93;100.00;97703.28;5077486;28;19925;-66
2023/03/30 04:20:43;;;;;;;;;;;;;;;7.87;100.00;97690.19;5078346;28;20402;-66
2023/03/30 04:23:15;;;;;;;;;;;;;;;7.77;100.00;97676.81;5081058;28;19943;-65
2023/03/30 04:25:44;;;;;;;;;;;;;;;7.85;100.00;97668.38;5079558;28;19928;-66
2023/03/30 04:28:11;;;;;;;;;;;;;;;7.79;100.00;97664.06;5077613;28;19924;-65
2023/03/30 04:30:39;;;;;;;;;;;;;;;7.78;100.00;97675.72;5079586;28;19948;-65
2023/03/30 04:33:08;;;;;;;;;;;;;;;7.95;100.00;97685.22;5084696;28;19958;-65
2023/03/30 04:35:34;;;;;;;;;;;;;;;7.96;100.00;97686.00;5084084;28;19928;-65
2023/03/30 04:38:01;;;;;;;;;;;;;;;8.04;100.00;97693.56;5080933;28;19929;-65
2023/03/30 04:40:27;;;;;;;;;;;;;;;8.11;100.00;97688.81;5081018;28;20019;-65
2023/03/30 04:43:00;;;;;;;;;;;;;;;8.07;100.00;97693.06;5083897;28;19924;-65
2023/03/30 04:45:27;;;;;;;;;;;;;;;7.97;100.00;97687.63;5084343;28;19924;-66
2023/03/30 04:47:53;;;;;;;;;;;;;;;8.14;100.00;97698.94;5081320;28;19987;-66
2023/03/30 04:50:20;;;;;;;;;;;;;;;7.98;100.00;97686.59;5080738;28;19925;-65
2023/03/30 04:52:46;;;;;;;;;;;;;;;7.89;100.00;97682.78;5082464;28;19921;-65
2023/03/30 04:55:12;;;;;;;;;;;;;;;7.86;100.00;97691.25;5084072;28;19968;-65
2023/03/30 04:57:39;;;;;;;;;;;;;;;7.81;100.00;97684.00;5083017;28;19925;-64
2023/03/30 05:00:08;;;;;;;;;;;;;;;7.74;100.00;97672.78;5080290;28;19936;-65
2023/03/30 05:02:34;;;;;;;;;;;;;;;7.74;100.00;97659.47;5080620;28;19921;-65
2023/03/30 05:05:01;;;;;;;;;;;;;;;7.89;100.00;97674.81;5083848;28;19924;-65
2023/03/30 05:07:27;;;;;;;;;;;;;;;7.76;100.00;97656.59;5083807;28;19931;-64
2023/03/30 05:09:53;;;;;;;;;;;;;;;7.91;100.00;97660.19;5080794;28;19975;-65
2023/03/30 05:12:20;;;;;;;;;;;;;;;8.13;100.00;97670.75;5080438;28;19935;-65
2023/03/30 05:14:47;;;;;;;;;;;;;;;7.93;100.00;97660.72;5082020;28;19980;-65
2023/03/30 05:17:14;;;;;;;;;;;;;;;7.87;100.00;97666.25;5083484;28;19924;-65
2023/03/30 05:19:41;;;;;;;;;;;;;;;7.99;100.00;97677.53;5082216;28;19976;-65
2023/03/30 05:22:07;;;;;;;;;;;;;;;7.94;100.00;97675.66;5080161;28;19925;-65
2023/03/30 05:24:34;;;;;;;;;;;;;;;8.02;100.00;97664.53;5079111;28;20567;-65
2023/03/30 05:27:01;;;;;;;;;;;;;;;8.09;100.00;97675.78;5083379;28;19924;-65
2023/03/30 05:29:27;;;;;;;;;;;;;;;8.08;100.00;97679.47;5083593;28;19924;-66
2023/03/30 05:31:53;;;;;;;;;;;;;;;7.93;100.00;97670.56;5080326;28;19925;-65
2023/03/30 05:34:21;;;;;;;;;;;;;;;8.07;100.00;97679.75;5079783;28;19924;-65
2023/03/30 05:36:47;;;;;;;;;;;;;;;7.96;100.00;97680.69;5081506;28;19979;-65
2023/03/30 05:39:14;;;;;;;;;;;;;;;8.08;100.00;97687.47;5083205;28;19955;-66
2023/03/30 05:41:40;;;;;;;;;;;;;;;8.05;100.00;97679.19;5081110;28;20563;-66
2023/03/30 05:44:07;;;;;;;;;;;;;;;8.12;100.00;97690.44;5079767;28;19959;-66
2023/03/30 05:46:33;;;;;;;;;;;;;;;8.14;100.00;97697.09;5079746;28;19996;-66
2023/03/30 05:49:00;;;;;;;;;;;;;;;8.13;100.00;97681.41;5082087;28;19968;-67
2023/03/30 05:51:27;;;;;;;;;;;;;;;8.19;100.00;97676.94;5083132;28;19970;-66
2023/03/30 05:53:54;;;;;;;;;;;;;;;8.10;100.00;97672.06;5079887;28;19964;-66
2023/03/30 05:56:20;;;;;;;;;;;;;;;8.15;100.00;97658.81;5078074;28;19928;-65
2023/03/30 05:58:47;;;;;;;;;;;;;;;8.17;100.00;97677.16;5081106;28;19920;-65
2023/03/30 06:01:13;;;;;;;;;;;;;;;8.24;100.00;97683.09;5082608;28;19928;-65
2023/03/30 06:03:40;;;;;;;;;;;;;;;8.23;100.00;97680.69;5080311;28;19948;-65
2023/03/30 06:06:07;;;;;;;;;;;;;;;8.12;100.00;97688.56;5079203;28;19925;-65
2023/03/30 06:08:35;;;;;;;;;;;;;;;8.21;100.00;97680.94;5079377;28;19927;-65
2023/03/30 06:11:01;;;;;;;;;;;;;;;8.12;100.00;97683.25;5082417;28;19921;-65
2023/03/30 06:13:28;;;;;;;;;;;;;;;8.11;100.00;97663.03;5082450;28;19925;-66
2023/03/30 06:15:54;;;;;;;;;;;;;;;8.14;100.00;97685.66;5079134;28;19962;-66
2023/03/30 06:18:21;;;;;;;;;;;;;;;8.18;100.00;97686.75;5078903;28;19925;-65
2023/03/30 06:20:47;;;;;;;;;;;;;;;8.14;100.00;97665.19;5081040;28;19970;-65
2023/03/30 06:23:14;;;;;;;;;;;;;;;8.13;100.00;97663.59;5082364;28;19924;-65
2023/03/30 06:25:45;;;;;;;;;;;;;;;8.13;100.00;97646.81;5081002;28;19930;-65
2023/03/30 06:28:11;;;;;;;;;;;;;;;8.12;100.00;97667.28;5078773;28;20000;-65
2023/03/30 06:30:38;;;;;;;;;;;;;;;8.22;100.00;97685.22;5079279;28;19940;-65
2023/03/30 06:33:04;;;;;;;;;;;;;;;8.14;100.00;97675.81;5082274;28;19931;-65
2023/03/30 06:35:31;;;;;;;;;;;;;;;8.19;100.00;97671.59;5081290;28;19932;-65
2023/03/30 06:37:57;;;;;;;;;;;;;;;8.34;100.00;97669.91;5070358;28;19925;-65
2023/03/30 06:40:24;;;;;;;;;;;;;;;8.24;100.00;97661.00;5078562;28;19925;-65
2023/03/30 06:42:51;;;;;;;;;;;;;;;8.17;100.00;97657.75;5096666;28;19951;-65
2023/03/30 06:45:18;;;;;;;;;;;;;;;8.17;100.00;97661.19;5081913;28;19931;-66
2023/03/30 06:47:44;;;;;;;;;;;;;;;8.20;100.00;97666.00;5080231;28;19927;-65
2023/03/30 06:50:12;;;;;;;;;;;;;;;8.20;100.00;97668.69;5078745;28;19988;-65
2023/03/30 06:52:38;;;;;;;;;;;;;;;8.20;100.00;97663.34;5079740;28;19929;-65
2023/03/30 06:55:05;;;;;;;;;;;;;;;8.18;100.00;97659.34;5082740;28;19929;-65
2023/03/30 06:57:31;;;;;;;;;;;;;;;8.15;100.00;97668.66;5082677;28;19951;-65
2023/03/30 06:59:59;;;;;;;;;;;;;;;8.15;100.00;97656.16;5071040;28;19924;-64
2023/03/30 07:02:26;;;;;;;;;;;;;;;8.21;100.00;97653.53;5082365;28;19935;-64
2023/03/30 07:04:52;;;;;;;;;;;;;;;8.25;100.00;97662.59;5081788;28;19928;-65
2023/03/30 07:07:19;;;;;;;;;;;;;;;8.36;100.00;97643.84;5082749;28;19963;-65
2023/03/30 07:09:46;;;;;;;;;;;;;;;8.36;100.00;97630.53;5080691;28;19924;-65
2023/03/30 07:12:12;;;;;;;;;;;;;;;8.41;100.00;97635.91;5077961;28;20004;-65
2023/03/30 07:14:38;;;;;;;;;;;;;;;8.46;100.00;97632.47;5079645;28;19971;-65
2023/03/30 07:17:07;;;;;;;;;;;;;;;8.45;100.00;97639.63;5082369;28;19948;-65
2023/03/30 07:19:33;;;;;;;;;;;;;;;8.54;100.00;97638.09;5082058;28;19935;-65
2023/03/30 07:21:59;;;;;;;;;;;;;;;8.50;100.00;97644.22;5078900;28;19925;-65
2023/03/30 07:24:26;;;;;;;;;;;;;;;8.51;100.00;97635.97;5094542;28;19967;-66
2023/03/30 07:26:52;;;;;;;;;;;;;;;8.52;100.00;97636.75;5081327;28;19963;-66
2023/03/30 07:29:18;;;;;;;;;;;;;;;8.59;100.00;97634.69;5081802;28;20010;-66
2023/03/30 07:31:45;;;;;;;;;;;;;;;8.66;100.00;97633.38;5080154;28;19948;-66
2023/03/30 07:34:12;;;;;;;;;;;;;;;8.74;100.00;97640.09;5078422;28;19967;-65
2023/03/30 07:36:39;;;;;;;;;;;;;;;8.80;100.00;97638.25;5079150;28;19921;-65
2023/03/30 07:39:07;;;;;;;;;;;;;;;8.81;100.00;97629.22;5081792;28;19931;-65
2023/03/30 07:41:33;;;;;;;;;;;;;;;8.90;100.00;97617.03;5081564;28;19925;-66
2023/03/30 07:44:00;;;;;;;;;;;;;;;8.82;100.00;97610.31;5078067;28;19964;-65
2023/03/30 07:46:26;;;;;;;;;;;;;;;8.88;100.00;97614.59;5078025;28;19921;-65
2023/03/30 07:48:53;;;;;;;;;;;;;;;8.82;100.00;97609.53;5080857;28;19939;-65
2023/03/30 07:51:21;;;;;;;;;;;;;;;8.86;100.00;97611.41;5081567;28;19924;-65
2023/03/30 07:53:47;;;;;;;;;;;;;;;8.94;100.00;97596.81;5079345;28;19931;-65
2023/03/30 07:56:14;;;;;;;;;;;;;;;9.01;100.00;97605.34;5078258;28;19929;-65
2023/03/30 07:58:40;;;;;;;;;;;;;;;9.03;100.00;97603.25;5078912;28;19925;-65
2023/03/30 08:01:07;;;;;;;;;;;;;;;9.04;100.00;97596.84;5081497;28;19955;-65
2023/03/30 08:03:33;;;;;;;;;;;;;;;9.04;100.00;97591.50;5081144;28;20530;-65
2023/03/30 08:06:02;;;;;;;;;;;;;;;9.06;100.00;97606.19;5081825;28;19924;-65
2023/03/30 08:08:31;;;;;;;;;;;;;;;9.04;100.00;97599.50;5082199;28;20024;-65
2023/03/30 08:10:57;;;;;;;;;;;;;;;9.11;100.00;97608.06;5073903;28;19931;-65
2023/03/30 08:13:24;;;;;;;;;;;;;;;9.04;100.00;97610.16;5082169;28;19932;-65
2023/03/30 08:15:51;;;;;;;;;;;;;;;9.09;100.00;97610.19;5083100;28;19924;-65
2023/03/30 08:18:18;;;;;;;;;;;;;;;9.03;100.00;97619.22;5085092;28;20452;-65
2023/03/30 08:20:44;;;;;;;;;;;;;;;9.03;100.00;97620.03;5083585;28;19931;-65
2023/03/30 08:23:11;;;;;;;;;;;;;;;9.08;100.00;97613.91;5081473;28;20015;-65
2023/03/30 08:25:39;;;;;;;;;;;;;;;9.11;100.00;97621.38;5082279;28;19971;-66
2023/03/30 08:28:06;;;;;;;;;;;;;;;9.10;100.00;97598.47;5084977;28;19924;-66
2023/03/30 08:30:33;;;;;;;;;;;;;;;9.17;100.00;97593.69;5077689;28;19920;-66
2023/03/30 08:32:59;;;;;;;;;;;;;;;9.18;100.00;97585.47;5085539;28;19963;-66
2023/03/30 08:35:26;;;;;;;;;;;;;;;9.17;100.00;97586.50;5085438;28;19925;-66
2023/03/30 08:37:52;;;;;;;;;;;;;;;9.25;100.00;97598.53;5082401;28;19929;-66
2023/03/30 08:40:19;;;;;;;;;;;;;;;9.30;100.00;97601.19;5081573;28;19925;-66
2023/03/30 08:42:58;;;;;;;;;;;;;;;9.30;100.00;97603.88;5083356;28;19932;-66
2023/03/30 08:45:24;;;;;;;;;;;;;;;9.32;100.00;97619.59;5085498;28;20018;-66
2023/03/30 08:47:52;;;;;;;;;;;;;;;9.33;100.00;97632.66;5082869;28;19925;-65
2023/03/30 08:50:21;;;;;;;;;;;;;;;9.34;100.00;97623.63;5081724;28;19971;-65
2023/03/30 08:52:49;;;;;;;;;;;;;;;9.36;100.00;97637.47;5083465;28;19937;-65
2023/03/30 08:55:20;;;;;;;;;;;;;;;9.26;100.00;97618.78;5084377;28;19924;-66
2023/03/30 08:57:51;;;;;;;;;;;;;;;9.31;100.00;97634.78;5082406;28;19925;-65
2023/03/30 09:00:26;;;;;;;;;;;;;;;9.34;100.00;97612.94;5080856;28;19928;-65
2023/03/30 09:02:55;;;;;;;;;;;;;;;9.30;100.00;97617.19;5083732;28;19974;-65
2023/03/30 09:05:23;;;;;;;;;;;;;;;9.39;100.00;97634.28;5084356;28;19924;-65
2023/03/30 09:07:54;;;;;;;;;;;;;;;9.34;100.00;97612.16;5082064;28;19925;-65
2023/03/30 09:10:22;;;;;;;;;;;;;;;9.38;100.00;97607.88;5080866;28;19964;-65
2023/03/30 09:12:51;;;;;;;;;;;;;;;9.43;100.00;97599.91;5082513;28;19929;-66
2023/03/30 09:15:20;;;;;;;;;;;;;;;9.47;100.00;97585.78;5083400;28;19924;-66
2023/03/30 09:17:50;;;;;;;;;;;;;;;9.51;100.00;97586.88;5081618;28;19935;-66
2023/03/30 09:20:20;;;;;;;;;;;;;;;9.52;100.00;97571.69;5080383;28;19924;-66
2023/03/30 09:22:48;;;;;;;;;;;;;;;9.53;100.00;97574.06;5082084;28;19925;-66
2023/03/30 09:25:16;;;;;;;;;;;;;;;9.63;100.00;97551.94;5082343;28;19920;-66
2023/03/30 09:27:45;;;;;;;;;;;;;;;9.73;100.00;97567.97;5081953;28;19920;-66
2023/03/30 09:30:16;;;;;;;;;;;;;;;9.79;100.00;97566.91;5080027;28;19983;-66
2023/03/30 09:32:46;;;;;;;;;;;;;;;9.71;100.00;97564.78;5081151;28;19925;-66
2023/03/30 09:35:14;;;;;;;;;;;;;;;9.81;100.00;97564.75;5083370;28;19928;-67
2023/03/30 09:37:41;;;;;;;;;;;;;;;9.74;100.00;97573.03;5082028;28;19931;-65
2023/03/30 09:40:18;;;;;;;;;;;;;;;9.80;100.00;97573.03;5079774;28;19941;-66
2023/03/30 09:42:50;;;;;;;;;;;;;;;9.84;100.00;97574.13;5081776;28;19929;-65
2023/03/30 09:45:19;;;;;;;;;;;;;;;9.83;100.00;97577.84;5083656;28;19920;-65
2023/03/30 09:47:46;;;;;;;;;;;;;;;9.90;100.00;97587.19;5081562;28;19924;-67
2023/03/30 09:50:16;;;;;;;;;;;;;;;9.94;100.00;97590.09;5080081;28;19925;-66
2023/03/30 09:52:55;;;;;;;;;;;;;;;9.93;100.00;97609.88;5080237;28;19924;-67
2023/03/30 09:55:26;;;;;;;;;;;;;;;9.95;100.00;97626.41;5083496;28;19928;-66
2023/03/30 09:57:53;;;;;;;;;;;;;;;9.96;100.00;97620.00;5080420;28;19929;-65
2023/03/30 10:00:24;;;;;;;;;;;;;;;9.97;100.00;97626.91;5079745;28;19931;-66
2023/03/30 10:02:54;;;;;;;;;;;;;;;9.99;100.00;97640.81;5082410;28;19986;-66
2023/03/30 10:05:22;;;;;;;;;;;;;;;10.04;100.00;97643.47;5083374;28;19924;-66
2023/03/30 10:07:52;;;;;;;;;;;;;;;9.99;100.00;97640.81;5081084;28;20479;-66
2023/03/30 10:10:28;;;;;;;;;;;;;;;10.02;100.00;97625.06;5079680;28;19921;-66
2023/03/30 10:12:55;;;;;;;;;;;;;;;10.08;100.00;97636.56;5082656;28;19988;-66
2023/03/30 10:15:23;;;;;;;;;;;;;;;10.10;100.00;97647.75;5081757;28;19925;-66
2023/03/30 10:17:55;;;;;;;;;;;;;;;10.10;100.00;97658.41;5080772;28;19936;-66
2023/03/30 10:20:25;;;;;;;;;;;;;;;10.11;100.00;97665.38;5079602;28;19920;-66
2023/03/30 10:22:52;;;;;;;;;;;;;;;10.16;100.00;97642.19;5082139;28;19924;-67
2023/03/30 10:25:22;;;;;;;;;;;;;;;10.20;100.00;97642.44;5082948;28;19924;-65
2023/03/30 10:27:49;;;;;;;;;;;;;;;10.04;100.00;97632.81;5079947;28;19925;-66
2023/03/30 10:30:20;;;;;;;;;;;;;;;10.09;100.00;97638.13;5079019;28;20579;-65
2023/03/30 10:32:46;;;;;;;;;;;;;;;9.93;100.00;97633.88;5081109;28;19948;-66
2023/03/30 10:35:17;;;;;;;;;;;;;;;10.09;100.00;97638.13;5082701;28;19992;-66
2023/03/30 10:37:46;;;;;;;;;;;;;;;10.17;100.00;97632.31;5080963;28;19984;-66
2023/03/30 10:40:17;;;;;;;;;;;;;;;9.99;100.00;97624.81;5079227;28;19928;-66
2023/03/30 10:42:44;;;;;;;;;;;;;;;9.86;100.00;97639.47;5080589;28;19948;-66
2023/03/30 10:45:15;;;;;;;;;;;;;;;9.82;100.00;97638.38;5082911;28;19947;-66
2023/03/30 10:47:49;;;;;;;;;;;;;;;10.15;100.00;97631.78;5081465;28;19925;-67
2023/03/30 10:50:22;;;;;;;;;;;;;;;10.26;100.00;97646.72;5079618;28;19971;-66
2023/03/30 10:52:58;;;;;;;;;;;;;;;10.32;100.00;97640.31;5080427;28;19959;-65
2023/03/30 10:55:29;;;;;;;;;;;;;;;10.36;100.00;97628.03;5082405;28;19920;-67
2023/03/30 10:58:00;;;;;;;;;;;;;;;10.36;100.00;97622.69;5079160;28;20336;-66
2023/03/30 11:00:36;;;;;;;;;;;;;;;10.23;100.00;97618.72;5077796;28;20676;-66
2023/03/30 11:03:07;;;;;;;;;;;;;;;10.23;100.00;97631.25;5071657;28;19964;-66
2023/03/30 11:05:35;;;;;;;;;;;;;;;10.37;100.00;97612.84;5079377;28;19931;-65
2023/03/30 11:08:04;;;;;;;;;;;;;;;10.47;100.00;97605.59;5082797;28;20007;-65
2023/03/30 11:10:32;;;;;;;;;;;;;;;10.52;100.00;97602.91;5082560;28;19967;-66
2023/03/30 11:13:00;;;;;;;;;;;;;;;10.56;100.00;97609.31;5071082;28;19935;-66
2023/03/30 11:15:30;;;;;;;;;;;;;;;10.57;100.00;97608.25;5078801;28;19929;-66
2023/03/30 11:18:02;;;;;;;;;;;;;;;10.46;100.00;97620.00;5081988;28;19955;-66
2023/03/30 11:20:30;;;;;;;;;;;;;;;10.36;100.00;97625.38;5081365;28;19979;-65
2023/03/30 11:23:06;;;;;;;;;;;;;;;10.28;100.00;97615.22;5077758;28;19940;-67
2023/03/30 11:25:34;;;;;;;;;;;;;;;10.40;100.00;97605.06;5078397;28;19954;-66
2023/03/30 11:28:07;;;;;;;;;;;;;;;10.36;100.00;97604.03;5070214;28;19932;-65
2023/03/30 11:30:35;;;;;;;;;;;;;;;10.16;100.00;97610.16;5090631;28;19985;-66
2023/03/30 11:33:05;;;;;;;;;;;;;;;10.03;100.00;97623.19;5081923;28;19924;-67
2023/03/30 11:35:35;;;;;;;;;;;;;;;10.09;100.00;97616.78;5081742;28;19921;-66
2023/03/30 11:38:08;;;;;;;;;;;;;;;10.37;100.00;97610.94;5070445;28;19928;-66
2023/03/30 11:40:38;;;;;;;;;;;;;;;10.48;100.00;97609.06;5081701;28;19924;-66
2023/03/30 11:43:05;;;;;;;;;;;;;;;10.06;100.00;97628.00;5086537;28;20281;-66
2023/03/30 11:45:38;;;;;;;;;;;;;;;10.34;100.00;97643.50;5086694;28;19925;-66
2023/03/30 11:48:17;;;;;;;;;;;;;;;10.31;100.00;97641.38;5075723;28;19947;-65
2023/03/30 11:50:52;;;;;;;;;;;;;;;10.13;100.00;97640.03;5083902;28;19925;-66
2023/03/30 11:53:24;;;;;;;;;;;;;;;10.35;100.00;97629.09;5085703;28;19925;-65
2023/03/30 11:56:01;;;;;;;;;;;;;;;10.37;100.00;97607.50;5083011;28;19924;-66
2023/03/30 11:58:32;;;;;;;;;;;;;;;10.31;100.00;97598.66;5081886;28;19924;-66
2023/03/30 12:01:07;;;;;;;;;;;;;;;10.49;100.00;97608.00;5069451;28;19960;-66
2023/03/30 12:03:39;;;;;;;;;;;;;;;10.30;100.00;97615.78;5085219;28;19924;-66
2023/03/30 12:06:15;;;;;;;;;;;;;;;10.45;100.00;97607.75;5081789;28;19924;-66
2023/03/30 12:09:06;;;;;;;;;;;;;;;10.59;100.00;97591.94;5082939;28;19921;-65
2023/03/30 12:11:38;;;;;;;;;;;;;;;10.57;100.00;97594.91;5074621;28;19932;-66
2023/03/30 12:14:10;;;;;;;;;;;;;;;10.67;100.00;97594.09;5074113;28;20016;-66
2023/03/30 12:16:40;;;;;;;;;;;;;;;10.59;100.00;97611.44;5082201;28;20004;-67
2023/03/30 12:19:11;;;;;;;;;;;;;;;10.57;100.00;97618.94;5085045;28;19925;-65
2023/03/30 12:21:40;;;;;;;;;;;;;;;10.80;100.00;97612.19;5084504;28;20628;-67
2023/03/30 12:24:13;;;;;;;;;;;;;;;10.86;100.00;97607.66;5081660;28;19984;-65
2023/03/30 12:26:41;;;;;;;;;;;;;;;10.93;100.00;97605.47;5082521;28;19992;-66
2023/03/30 12:29:09;;;;;;;;;;;;;;;10.98;100.00;97595.59;5084857;28;19958;-65
2023/03/30 12:31:50;;;;;;;;;;;;;;;10.93;100.00;97592.13;5084298;28;20491;-67
2023/03/30 12:34:17;;;;;;;;;;;;;;;10.89;100.00;97573.19;5081290;28;19933;-66
2023/03/30 12:36:47;;;;;;;;;;;;;;;10.90;100.00;97563.28;5082685;28;19924;-66
2023/03/30 12:39:18;;;;;;;;;;;;;;;10.92;100.00;97563.81;5084816;28;19947;-66
2023/03/30 12:41:48;;;;;;;;;;;;;;;11.01;100.00;97572.88;5083293;28;19990;-66
2023/03/30 12:44:33;;;;;;;;;;;;;;;11.02;100.00;97572.59;5081044;28;19948;-65
2023/03/30 12:47:04;;;;;;;;;;;;;;;11.15;100.00;97581.88;5068811;28;20020;-65
2023/03/30 12:49:37;;;;;;;;;;;;;;;11.18;100.00;97563.44;5077431;28;20015;-65
2023/03/30 12:52:08;;;;;;;;;;;;;;;11.23;100.00;97570.63;5073325;28;19924;-65
2023/03/30 12:54:59;;;;;;;;;;;;;;;11.16;100.00;97568.25;5081571;28;19952;-65